Sunday, August 19, 2018, 1:54 PM EDT
Back to Local

KWWD, Wildwood, Cape May County Airport

Location: Villas, NJ, United States Lat: 39.017
Local Time: 1:54 PM EDT (17:54 GMT) Lon: -74.917
Time Zone: US/Eastern Elev: 22 ft

Show me the last for .
Show Decoded

2018-08-19 12:55 METAR KWWD 191655Z AUTO 05012G19KT 10SM OVC014 24/22 A2994 RMK AO2 SLP139
                 T02440217 =
2018-08-19 12:25 METAR KWWD 191625Z AUTO 05015G20KT 10SM BKN014 BKN032 OVC080 26/22 A2993 RMK AO2
                 =
2018-08-19 12:16 METAR KWWD 191616Z AUTO 05015G21KT 10SM SCT014 BKN032 OVC080 26/22 A2993 RMK AO2
                 =
2018-08-19 11:55 METAR KWWD 191555Z AUTO 06014G19KT 10SM SCT014 BKN019 BKN027 26/23 A2992 RMK AO2
                 SLP135 T02610228 =
2018-08-19 11:04 METAR KWWD 191504Z AUTO 05007KT 10SM BKN015 OVC034 26/23 A2992 RMK AO2 =
2018-08-19 10:55 METAR KWWD 191455Z AUTO 04006KT 10SM SCT013 SCT025 OVC032 26/23 A2992 RMK AO2
                 SLP133 T02610228 53012 =
2018-08-19 10:49 METAR KWWD 191449Z AUTO 04008KT 10SM SCT013 SCT025 BKN033 26/23 A2992 RMK AO2 =
2018-08-19 10:05 METAR KWWD 191405Z AUTO 04008KT 10SM OVC011 25/23 A2992 RMK AO2 =
2018-08-19 09:55 METAR KWWD 191355Z AUTO 06008KT 10SM OVC009 25/23 A2991 RMK AO2 CIG 007V013
                 SLP131 T02500228 =
2018-08-19 08:55 METAR KWWD 191255Z AUTO 04006KT 10SM BKN007 OVC033 24/23 A2989 RMK AO2 SLP123
                 T02440228 =
2018-08-19 08:45 METAR KWWD 191245Z AUTO 04009KT 10SM BKN007 BKN023 OVC033 24/23 A2989 RMK AO2 =
2018-08-19 08:41 METAR KWWD 191241Z AUTO 03009KT 10SM SCT007 SCT023 BKN033 24/23 A2989 RMK AO2 =
2018-08-19 08:32 METAR KWWD 191232Z AUTO 05007KT 10SM SCT013 SCT023 OVC033 24/23 A2989 RMK AO2 =
2018-08-19 08:26 METAR KWWD 191226Z AUTO 05007KT 10SM BKN013 BKN023 OVC033 24/23 A2989 RMK AO2 =
2018-08-19 08:14 METAR KWWD 191214Z AUTO 04006KT 10SM SCT008 OVC015 23/23 A2989 RMK AO2 =
2018-08-19 07:55 METAR KWWD 191155Z AUTO 04005KT 5SM BR BKN007 OVC017 23/23 A2989 RMK AO2 CIG
                 006V010 SLP122 60005 70200 T02330228 10233 20217 52020 =
2018-08-19 07:38 METAR KWWD 191138Z AUTO 05004KT 4SM BR FEW003 SCT007 BKN017 23/23 A2988 RMK AO2
                 =
2018-08-19 06:55 METAR KWWD 191055Z AUTO 04005KT 5SM BR BKN003 OVC012 23/22 A2987 RMK AO2 SLP116
                 T02280222 =
2018-08-19 06:46 METAR KWWD 191046Z AUTO 04004KT 6SM BR SCT003 OVC012 23/22 A2987 RMK AO2 =
2018-08-19 06:30 METAR KWWD 191030Z AUTO 00000KT 7SM BKN012 BKN075 22/22 A2986 RMK AO2 =
2018-08-19 05:55 METAR KWWD 190955Z AUTO 03003KT 4SM BR CLR 22/22 A2984 RMK AO2 SLP107 T02170217
                 =
2018-08-19 04:55 METAR KWWD 190855Z AUTO 00000KT 8SM FEW075 22/22 A2983 RMK AO2 SLP101 60005
                 T02220217 56008 =
2018-08-19 03:55 METAR KWWD 190755Z AUTO 20003KT 10SM OVC090 23/22 A2983 RMK AO2 SLP104 T02280222
                 =
2018-08-19 02:55 METAR KWWD 190655Z AUTO 00000KT 10SM BKN070 OVC090 23/22 A2983 RMK AO2 RAE55
                 SLP103 P0005 T02280222 =
2018-08-19 01:55 METAR KWWD 190555Z AUTO 35004KT 4SM +RA BR FEW032 BKN060 OVC120 22/22 A2985 RMK
                 AO2 TSE00B11E38 SLP110 P0071 60195 T02220217 10283 20222 53004 =
2018-08-19 01:43 METAR KWWD 190543Z AUTO 00000KT 10SM -RA FEW029 BKN070 OVC120 22/22 A2985 RMK
                 AO2 TSE00B11E38 P0063 =
2018-08-19 01:27 METAR KWWD 190527Z AUTO VRB03KT 4SM +TSRA BR FEW011 BKN035 OVC050 22/22 A2984
                 RMK AO2 TSE00B11 P0059 =
2018-08-19 01:20 METAR KWWD 190520Z AUTO 23006KT 2 1/2SM +TSRA BR SCT014 BKN022 OVC065 22/22
                 A2984 RMK AO2 TSE00B11 P0048 =
2018-08-19 01:13 METAR KWWD 190513Z AUTO VRB04KT 1 3/4SM +TSRA BR FEW014 BKN022 OVC060 22/22
                 A2984 RMK AO2 TSE00B11 P0045 =
2018-08-19 01:07 METAR KWWD 190507Z AUTO 22005KT 2 1/2SM +RA BR SCT020 BKN029 OVC060 22/22 A2985
                 RMK AO2 TSE00 P0023 =
2018-08-19 01:02 METAR KWWD 190502Z AUTO 20009KT 3SM +RA BR FEW022 BKN044 OVC060 22/22 A2984 RMK
                 AO2 TSE00 P0008 =
2018-08-19 00:55 METAR KWWD 190455Z AUTO 17010KT 2SM VCTS +RA BR SCT020 BKN032 OVC060 22/22 A2984
                 RMK AO2 TSB0356E11B38 SLP107 P0094 T02220217 403220222 =
2018-08-19 00:43 METAR KWWD 190443Z AUTO 17006KT 2SM VCTS +RA BR FEW016 BKN036 OVC055 22/22 A2985
                 RMK AO2 LTG DSNT NE TSB0356E11B38 P0067 =
2018-08-19 00:37 METAR KWWD 190437Z AUTO 16005KT 2 1/2SM +RA BR FEW012 BKN036 OVC055 22/21 A2984
                 RMK AO2 VIS 2V3 LTG DSNT NE AND E TSB0356E11 P0057 =
2018-08-19 00:27 METAR KWWD 190427Z AUTO 16006KT 4SM +RA BR FEW010 BKN037 OVC050 22/21 A2984 RMK
                 AO2 LTG DSNT NE AND E TSB0356E11 P0046 =
2018-08-19 00:13 METAR KWWD 190413Z AUTO 03008KT 2SM +RA BR FEW009 BKN048 OVC060 22/21 A2984 RMK
                 AO2 VIS 3/4V5 LTG DSNT NE TSB0356E11 P0027 =
2018-08-19 00:01 METAR KWWD 190401Z AUTO 14007KT 8SM TSRA FEW031 BKN055 OVC075 22/21 A2983 RMK
                 AO2 LTG DSNT NE AND SW TSB0356 P0002 =
2018-08-18 23:55 METAR KWWD 190355Z AUTO 14007KT 10SM -RA SCT034 BKN055 OVC070 22/21 A2984 RMK
                 AO2 LTG DSNT NE AND SW TSB26E41RAB07 SLP106 P0030 T02220211 =
2018-08-18 23:46 METAR KWWD 190346Z AUTO 17004KT 7SM -RA FEW032 BKN055 OVC100 22/21 A2985 RMK AO2
                 LTG DSNT NE TSB26E41RAB07 P0030 =
2018-08-18 23:28 METAR KWWD 190328Z AUTO 12003KT 6SM VCTS -RA BR FEW009 BKN033 OVC070 22/21 A2985
                 RMK AO2 TSB26RAB07 P0027 =
2018-08-18 22:55 METAR KWWD 190255Z AUTO 24004KT 10SM BKN036 27/24 A2984 RMK AO2 SLP106 T02720244
                 51004 =
2018-08-18 20:55 METAR KWWD 190055Z AUTO 23007KT 10SM BKN047 BKN060 28/23 A2984 RMK AO2 SLP106
                 T02780233 =
2018-08-18 19:55 METAR KWWD 182355Z AUTO 26005KT 10SM FEW040 SCT050 SCT070 28/23 A2983 RMK AO2
                 RAB23E54 SLP102 P0000 60000 T02830233 10322 20278 53006 =
2018-08-18 18:55 METAR KWWD 182255Z AUTO 25006KT 10SM CLR 29/23 A2981 RMK AO2 SLP097 T02940228 =
2018-08-18 17:55 METAR KWWD 182155Z AUTO 24006KT 10SM CLR 30/23 A2981 RMK AO2 SLP096 T03000228 =
2018-08-18 16:55 METAR KWWD 182055Z AUTO 27007KT 10SM CLR 31/22 A2981 RMK AO2 SLP096 T03060222
                 56016 =
2018-08-18 15:55 METAR KWWD 181955Z AUTO 27009KT 10SM CLR 32/22 A2982 RMK AO2 SLP098 T03170217 =
2018-08-18 14:55 METAR KWWD 181855Z AUTO 26009G14KT 10SM CLR 32/22 A2984 RMK AO2 SLP107 T03170222
                 =
2018-08-18 13:55 METAR KWWD 181755Z AUTO 25009KT 10SM CLR 31/23 A2986 RMK AO2 SLP112 T03110228
                 10317 20267 58014 =

Support USWX by starting your Amazon purchase here.